sensor_id;sensor_type;location;lat;lon;timestamp;temperature;humidity
2300;DHT22;1158;48.750;9.078;2023-05-28T00:00:45;8.10;99.90
2300;DHT22;1158;48.750;9.078;2023-05-28T00:03:12;8.00;99.90
2300;DHT22;1158;48.750;9.078;2023-05-28T00:05:43;8.00;99.90
2300;DHT22;1158;48.750;9.078;2023-05-28T00:08:09;8.00;99.90
2300;DHT22;1158;48.750;9.078;2023-05-28T00:10:37;7.90;99.90
2300;DHT22;1158;48.750;9.078;2023-05-28T00:13:04;7.90;99.90
2300;DHT22;1158;48.750;9.078;2023-05-28T00:15:31;7.90;99.90
2300;DHT22;1158;48.750;9.078;2023-05-28T00:17:57;7.90;99.90
2300;DHT22;1158;48.750;9.078;2023-05-28T00:20:24;7.80;99.90
2300;DHT22;1158;48.750;9.078;2023-05-28T00:22:51;7.80;99.90
2300;DHT22;1158;48.750;9.078;2023-05-28T00:25:18;7.70;99.90
2300;DHT22;1158;48.750;9.078;2023-05-28T00:27:46;7.70;99.90
2300;DHT22;1158;48.750;9.078;2023-05-28T00:30:13;7.70;99.90
2300;DHT22;1158;48.750;9.078;2023-05-28T00:32:39;7.70;99.90
2300;DHT22;1158;48.750;9.078;2023-05-28T00:35:06;7.60;99.90
2300;DHT22;1158;48.750;9.078;2023-05-28T00:37:33;7.60;99.90
2300;DHT22;1158;48.750;9.078;2023-05-28T00:40:00;7.60;99.90
2300;DHT22;1158;48.750;9.078;2023-05-28T00:42:27;7.50;99.90
2300;DHT22;1158;48.750;9.078;2023-05-28T00:44:55;7.50;99.90
2300;DHT22;1158;48.750;9.078;2023-05-28T00:47:21;7.40;99.90
2300;DHT22;1158;48.750;9.078;2023-05-28T00:49:48;7.40;99.90
2300;DHT22;1158;48.750;9.078;2023-05-28T00:52:16;7.40;99.90
2300;DHT22;1158;48.750;9.078;2023-05-28T00:54:43;7.30;99.90
2300;DHT22;1158;48.750;9.078;2023-05-28T00:57:10;7.30;99.90
2300;DHT22;1158;48.750;9.078;2023-05-28T00:59:37;7.30;99.90
2300;DHT22;1158;48.750;9.078;2023-05-28T01:02:06;7.20;99.90
2300;DHT22;1158;48.750;9.078;2023-05-28T01:04:32;7.20;99.90
2300;DHT22;1158;48.750;9.078;2023-05-28T01:07:00;7.20;99.90
2300;DHT22;1158;48.750;9.078;2023-05-28T01:09:27;7.10;99.90
2300;DHT22;1158;48.750;9.078;2023-05-28T01:11:54;7.10;99.90
2300;DHT22;1158;48.750;9.078;2023-05-28T01:14:22;7.10;99.90
2300;DHT22;1158;48.750;9.078;2023-05-28T01:16:49;7.10;99.90
2300;DHT22;1158;48.750;9.078;2023-05-28T01:19:22;7.00;99.90
2300;DHT22;1158;48.750;9.078;2023-05-28T01:24:24;6.90;99.90
2300;DHT22;1158;48.750;9.078;2023-05-28T01:26:51;6.80;99.90
2300;DHT22;1158;48.750;9.078;2023-05-28T01:29:18;6.80;99.90
2300;DHT22;1158;48.750;9.078;2023-05-28T01:31:45;6.90;99.90
2300;DHT22;1158;48.750;9.078;2023-05-28T01:34:12;6.90;99.90
2300;DHT22;1158;48.750;9.078;2023-05-28T01:36:49;6.80;99.90
2300;DHT22;1158;48.750;9.078;2023-05-28T01:39:18;6.80;99.90
2300;DHT22;1158;48.750;9.078;2023-05-28T01:41:48;6.80;99.90
2300;DHT22;1158;48.750;9.078;2023-05-28T01:44:17;6.70;99.90
2300;DHT22;1158;48.750;9.078;2023-05-28T01:46:45;6.70;99.90
2300;DHT22;1158;48.750;9.078;2023-05-28T01:49:13;6.70;99.90
2300;DHT22;1158;48.750;9.078;2023-05-28T01:51:40;6.70;99.90
2300;DHT22;1158;48.750;9.078;2023-05-28T01:54:07;6.60;99.90
2300;DHT22;1158;48.750;9.078;2023-05-28T01:56:33;6.60;99.90
2300;DHT22;1158;48.750;9.078;2023-05-28T01:59:02;6.50;99.90
2300;DHT22;1158;48.750;9.078;2023-05-28T02:01:29;6.50;99.90
2300;DHT22;1158;48.750;9.078;2023-05-28T02:03:59;6.50;99.90
2300;DHT22;1158;48.750;9.078;2023-05-28T02:06:27;6.50;99.90
2300;DHT22;1158;48.750;9.078;2023-05-28T02:08:54;6.40;99.90
2300;DHT22;1158;48.750;9.078;2023-05-28T02:14:44;6.40;99.90
2300;DHT22;1158;48.750;9.078;2023-05-28T02:17:11;6.30;99.90
2300;DHT22;1158;48.750;9.078;2023-05-28T02:19:38;6.30;99.90
2300;DHT22;1158;48.750;9.078;2023-05-28T02:22:05;6.30;99.90
2300;DHT22;1158;48.750;9.078;2023-05-28T02:24:36;6.30;99.90
2300;DHT22;1158;48.750;9.078;2023-05-28T02:27:04;6.30;99.90
2300;DHT22;1158;48.750;9.078;2023-05-28T02:29:31;6.20;99.90
2300;DHT22;1158;48.750;9.078;2023-05-28T02:31:59;6.20;99.90
2300;DHT22;1158;48.750;9.078;2023-05-28T02:34:26;6.20;99.90
2300;DHT22;1158;48.750;9.078;2023-05-28T02:36:53;6.20;99.90
2300;DHT22;1158;48.750;9.078;2023-05-28T02:39:21;6.10;99.90
2300;DHT22;1158;48.750;9.078;2023-05-28T02:41:47;6.10;99.90
2300;DHT22;1158;48.750;9.078;2023-05-28T02:44:14;6.10;99.90
2300;DHT22;1158;48.750;9.078;2023-05-28T02:46:41;6.10;99.90
2300;DHT22;1158;48.750;9.078;2023-05-28T02:49:09;6.00;99.90
2300;DHT22;1158;48.750;9.078;2023-05-28T02:51:36;6.10;99.90
2300;DHT22;1158;48.750;9.078;2023-05-28T02:54:02;6.00;99.90
2300;DHT22;1158;48.750;9.078;2023-05-28T02:56:29;6.00;99.90
2300;DHT22;1158;48.750;9.078;2023-05-28T02:58:56;6.00;99.90
2300;DHT22;1158;48.750;9.078;2023-05-28T03:01:22;5.90;99.90
2300;DHT22;1158;48.750;9.078;2023-05-28T03:03:49;5.80;99.90
2300;DHT22;1158;48.750;9.078;2023-05-28T03:06:17;5.80;99.90
2300;DHT22;1158;48.750;9.078;2023-05-28T03:08:44;5.70;99.90
2300;DHT22;1158;48.750;9.078;2023-05-28T03:11:11;5.70;99.90
2300;DHT22;1158;48.750;9.078;2023-05-28T03:13:37;5.80;99.90
2300;DHT22;1158;48.750;9.078;2023-05-28T03:16:05;5.80;99.90
2300;DHT22;1158;48.750;9.078;2023-05-28T03:18:32;5.70;99.90
2300;DHT22;1158;48.750;9.078;2023-05-28T03:20:58;5.70;99.90
2300;DHT22;1158;48.750;9.078;2023-05-28T03:23:26;5.70;99.90
2300;DHT22;1158;48.750;9.078;2023-05-28T03:25:53;5.70;99.90
2300;DHT22;1158;48.750;9.078;2023-05-28T03:28:20;5.70;99.90
2300;DHT22;1158;48.750;9.078;2023-05-28T03:30:46;5.60;99.90
2300;DHT22;1158;48.750;9.078;2023-05-28T03:33:13;5.60;99.90
2300;DHT22;1158;48.750;9.078;2023-05-28T03:35:40;5.60;99.90
2300;DHT22;1158;48.750;9.078;2023-05-28T03:38:06;5.60;99.90
2300;DHT22;1158;48.750;9.078;2023-05-28T03:40:34;5.60;99.90
2300;DHT22;1158;48.750;9.078;2023-05-28T03:43:01;5.50;99.90
2300;DHT22;1158;48.750;9.078;2023-05-28T03:45:28;5.60;99.90
2300;DHT22;1158;48.750;9.078;2023-05-28T03:47:54;5.60;99.90
2300;DHT22;1158;48.750;9.078;2023-05-28T03:50:21;5.60;99.90
2300;DHT22;1158;48.750;9.078;2023-05-28T03:52:48;5.60;99.90
2300;DHT22;1158;48.750;9.078;2023-05-28T03:55:15;5.60;99.90
2300;DHT22;1158;48.750;9.078;2023-05-28T03:57:43;5.70;99.90
2300;DHT22;1158;48.750;9.078;2023-05-28T04:00:11;5.70;99.90
2300;DHT22;1158;48.750;9.078;2023-05-28T04:02:38;5.80;99.90
2300;DHT22;1158;48.750;9.078;2023-05-28T04:05:05;5.80;99.90
2300;DHT22;1158;48.750;9.078;2023-05-28T04:07:32;5.80;99.90
2300;DHT22;1158;48.750;9.078;2023-05-28T04:09:59;5.80;99.90
2300;DHT22;1158;48.750;9.078;2023-05-28T04:12:26;5.80;99.90
2300;DHT22;1158;48.750;9.078;2023-05-28T04:14:54;5.80;99.90
2300;DHT22;1158;48.750;9.078;2023-05-28T04:17:22;5.90;99.90
2300;DHT22;1158;48.750;9.078;2023-05-28T04:19:48;6.00;99.90
2300;DHT22;1158;48.750;9.078;2023-05-28T04:22:16;6.00;99.90
2300;DHT22;1158;48.750;9.078;2023-05-28T04:24:43;6.10;99.90
2300;DHT22;1158;48.750;9.078;2023-05-28T04:27:11;6.20;99.90
2300;DHT22;1158;48.750;9.078;2023-05-28T04:29:37;6.30;99.90
2300;DHT22;1158;48.750;9.078;2023-05-28T04:32:06;6.40;99.90
2300;DHT22;1158;48.750;9.078;2023-05-28T04:34:34;6.50;99.90
2300;DHT22;1158;48.750;9.078;2023-05-28T04:37:02;6.60;99.90
2300;DHT22;1158;48.750;9.078;2023-05-28T04:39:29;6.70;99.90
2300;DHT22;1158;48.750;9.078;2023-05-28T04:41:56;6.80;99.90
2300;DHT22;1158;48.750;9.078;2023-05-28T04:44:23;7.00;99.90
2300;DHT22;1158;48.750;9.078;2023-05-28T04:46:52;7.10;99.90
2300;DHT22;1158;48.750;9.078;2023-05-28T04:49:20;7.10;99.90
2300;DHT22;1158;48.750;9.078;2023-05-28T04:51:47;7.30;99.90
2300;DHT22;1158;48.750;9.078;2023-05-28T04:54:14;7.40;99.90
2300;DHT22;1158;48.750;9.078;2023-05-28T04:56:40;7.50;99.90
2300;DHT22;1158;48.750;9.078;2023-05-28T04:59:07;7.70;99.90
2300;DHT22;1158;48.750;9.078;2023-05-28T05:01:35;7.80;99.90
2300;DHT22;1158;48.750;9.078;2023-05-28T05:04:01;8.00;99.90
2300;DHT22;1158;48.750;9.078;2023-05-28T05:06:29;8.10;99.90
2300;DHT22;1158;48.750;9.078;2023-05-28T05:08:56;8.30;99.90
2300;DHT22;1158;48.750;9.078;2023-05-28T05:11:23;8.50;99.90
2300;DHT22;1158;48.750;9.078;2023-05-28T05:13:51;8.70;99.90
2300;DHT22;1158;48.750;9.078;2023-05-28T05:16:18;8.90;99.90
2300;DHT22;1158;48.750;9.078;2023-05-28T05:18:45;9.20;99.90
2300;DHT22;1158;48.750;9.078;2023-05-28T05:21:11;9.40;99.90
2300;DHT22;1158;48.750;9.078;2023-05-28T05:23:40;9.50;99.90
2300;DHT22;1158;48.750;9.078;2023-05-28T05:26:06;9.70;99.90
2300;DHT22;1158;48.750;9.078;2023-05-28T05:28:35;9.90;99.90
2300;DHT22;1158;48.750;9.078;2023-05-28T05:31:01;10.20;99.90
2300;DHT22;1158;48.750;9.078;2023-05-28T05:33:28;10.40;99.90
2300;DHT22;1158;48.750;9.078;2023-05-28T05:35:55;10.60;99.90
2300;DHT22;1158;48.750;9.078;2023-05-28T05:38:21;10.90;99.90
2300;DHT22;1158;48.750;9.078;2023-05-28T05:40:49;11.20;99.90
2300;DHT22;1158;48.750;9.078;2023-05-28T05:43:16;11.40;99.90
2300;DHT22;1158;48.750;9.078;2023-05-28T05:45:43;11.70;99.90
2300;DHT22;1158;48.750;9.078;2023-05-28T05:48:09;12.10;99.90
2300;DHT22;1158;48.750;9.078;2023-05-28T05:50:47;12.50;99.90
2300;DHT22;1158;48.750;9.078;2023-05-28T05:53:14;12.80;99.90
2300;DHT22;1158;48.750;9.078;2023-05-28T05:55:41;13.20;99.90
2300;DHT22;1158;48.750;9.078;2023-05-28T05:58:09;13.90;99.90
2300;DHT22;1158;48.750;9.078;2023-05-28T06:00:35;15.20;99.90
2300;DHT22;1158;48.750;9.078;2023-05-28T06:03:03;16.70;99.90
2300;DHT22;1158;48.750;9.078;2023-05-28T06:05:29;17.90;99.90
2300;DHT22;1158;48.750;9.078;2023-05-28T06:07:56;18.70;99.90
2300;DHT22;1158;48.750;9.078;2023-05-28T06:10:23;19.80;97.20
2300;DHT22;1158;48.750;9.078;2023-05-28T06:12:50;20.40;93.70
2300;DHT22;1158;48.750;9.078;2023-05-28T06:15:18;21.00;92.60
2300;DHT22;1158;48.750;9.078;2023-05-28T06:17:45;21.20;90.50
2300;DHT22;1158;48.750;9.078;2023-05-28T06:20:12;21.80;90.90
2300;DHT22;1158;48.750;9.078;2023-05-28T06:22:39;22.50;89.20
2300;DHT22;1158;48.750;9.078;2023-05-28T06:25:06;22.90;87.20
2300;DHT22;1158;48.750;9.078;2023-05-28T06:27:34;23.50;83.80
2300;DHT22;1158;48.750;9.078;2023-05-28T06:30:01;23.40;83.50
2300;DHT22;1158;48.750;9.078;2023-05-28T06:32:29;23.40;80.80
2300;DHT22;1158;48.750;9.078;2023-05-28T06:34:56;23.10;82.40
2300;DHT22;1158;48.750;9.078;2023-05-28T06:37:22;23.60;81.20
2300;DHT22;1158;48.750;9.078;2023-05-28T06:39:49;24.00;80.20
2300;DHT22;1158;48.750;9.078;2023-05-28T06:42:16;24.20;78.40
2300;DHT22;1158;48.750;9.078;2023-05-28T06:44:43;24.40;78.30
2300;DHT22;1158;48.750;9.078;2023-05-28T06:47:09;23.20;78.10
2300;DHT22;1158;48.750;9.078;2023-05-28T06:49:37;23.20;80.50
2300;DHT22;1158;48.750;9.078;2023-05-28T06:52:04;23.80;78.60
2300;DHT22;1158;48.750;9.078;2023-05-28T06:54:31;24.00;77.60
2300;DHT22;1158;48.750;9.078;2023-05-28T06:56:58;23.80;79.00
2300;DHT22;1158;48.750;9.078;2023-05-28T06:59:25;23.50;79.90
2300;DHT22;1158;48.750;9.078;2023-05-28T07:01:52;23.30;78.90
2300;DHT22;1158;48.750;9.078;2023-05-28T07:04:18;23.10;79.70
2300;DHT22;1158;48.750;9.078;2023-05-28T07:06:46;23.80;78.20
2300;DHT22;1158;48.750;9.078;2023-05-28T07:09:13;23.70;77.40
2300;DHT22;1158;48.750;9.078;2023-05-28T07:11:40;24.70;76.50
2300;DHT22;1158;48.750;9.078;2023-05-28T07:14:06;25.40;75.50
2300;DHT22;1158;48.750;9.078;2023-05-28T07:16:33;25.10;75.20
2300;DHT22;1158;48.750;9.078;2023-05-28T07:19:00;25.40;74.60
2300;DHT22;1158;48.750;9.078;2023-05-28T07:21:26;25.70;72.30
2300;DHT22;1158;48.750;9.078;2023-05-28T07:23:54;24.80;74.10
2300;DHT22;1158;48.750;9.078;2023-05-28T07:26:21;26.10;72.50
2300;DHT22;1158;48.750;9.078;2023-05-28T07:28:48;25.70;73.80
2300;DHT22;1158;48.750;9.078;2023-05-28T07:31:15;26.00;71.30
2300;DHT22;1158;48.750;9.078;2023-05-28T07:33:41;25.90;72.90
2300;DHT22;1158;48.750;9.078;2023-05-28T07:36:08;26.50;71.60
2300;DHT22;1158;48.750;9.078;2023-05-28T07:38:35;26.70;70.20
2300;DHT22;1158;48.750;9.078;2023-05-28T07:41:03;26.60;72.80
2300;DHT22;1158;48.750;9.078;2023-05-28T07:43:30;27.00;69.40
2300;DHT22;1158;48.750;9.078;2023-05-28T07:45:57;27.20;70.50
2300;DHT22;1158;48.750;9.078;2023-05-28T07:48:24;27.90;70.10
2300;DHT22;1158;48.750;9.078;2023-05-28T07:50:51;28.40;67.00
2300;DHT22;1158;48.750;9.078;2023-05-28T07:53:17;28.10;68.40
2300;DHT22;1158;48.750;9.078;2023-05-28T07:55:44;26.20;70.40
2300;DHT22;1158;48.750;9.078;2023-05-28T07:58:12;26.40;70.90
2300;DHT22;1158;48.750;9.078;2023-05-28T08:00:39;26.80;69.60
2300;DHT22;1158;48.750;9.078;2023-05-28T08:03:06;27.10;69.60
2300;DHT22;1158;48.750;9.078;2023-05-28T08:05:33;27.10;69.70
2300;DHT22;1158;48.750;9.078;2023-05-28T08:08:00;26.50;69.90
2300;DHT22;1158;48.750;9.078;2023-05-28T08:10:26;27.50;69.10
2300;DHT22;1158;48.750;9.078;2023-05-28T08:12:53;27.40;67.90
2300;DHT22;1158;48.750;9.078;2023-05-28T08:15:21;27.30;71.30
2300;DHT22;1158;48.750;9.078;2023-05-28T08:17:48;27.70;67.30
2300;DHT22;1158;48.750;9.078;2023-05-28T08:20:15;27.70;67.70
2300;DHT22;1158;48.750;9.078;2023-05-28T08:22:42;27.20;69.00
2300;DHT22;1158;48.750;9.078;2023-05-28T08:25:09;26.80;71.30
2300;DHT22;1158;48.750;9.078;2023-05-28T08:27:36;26.30;71.70
2300;DHT22;1158;48.750;9.078;2023-05-28T08:30:03;26.20;71.90
2300;DHT22;1158;48.750;9.078;2023-05-28T08:32:31;26.30;70.50
2300;DHT22;1158;48.750;9.078;2023-05-28T08:34:58;26.30;70.40
2300;DHT22;1158;48.750;9.078;2023-05-28T08:37:24;26.30;72.20
2300;DHT22;1158;48.750;9.078;2023-05-28T08:39:51;26.70;72.70
2300;DHT22;1158;48.750;9.078;2023-05-28T08:42:18;27.00;70.70
2300;DHT22;1158;48.750;9.078;2023-05-28T08:44:44;27.10;70.50
2300;DHT22;1158;48.750;9.078;2023-05-28T08:47:12;26.80;70.90
2300;DHT22;1158;48.750;9.078;2023-05-28T08:49:45;27.20;71.60
2300;DHT22;1158;48.750;9.078;2023-05-28T08:52:14;27.60;68.90
2300;DHT22;1158;48.750;9.078;2023-05-28T08:54:43;27.80;70.10
2300;DHT22;1158;48.750;9.078;2023-05-28T08:57:10;28.20;68.20
2300;DHT22;1158;48.750;9.078;2023-05-28T08:59:37;28.20;70.70
2300;DHT22;1158;48.750;9.078;2023-05-28T09:02:04;28.20;67.90
2300;DHT22;1158;48.750;9.078;2023-05-28T09:04:31;28.60;67.80
2300;DHT22;1158;48.750;9.078;2023-05-28T09:06:59;27.90;68.10
2300;DHT22;1158;48.750;9.078;2023-05-28T09:09:26;27.60;69.60
2300;DHT22;1158;48.750;9.078;2023-05-28T09:12:01;28.30;66.80
2300;DHT22;1158;48.750;9.078;2023-05-28T09:14:31;28.40;67.10
2300;DHT22;1158;48.750;9.078;2023-05-28T09:17:03;28.00;66.90
2300;DHT22;1158;48.750;9.078;2023-05-28T09:19:30;27.60;68.90
2300;DHT22;1158;48.750;9.078;2023-05-28T09:21:57;27.80;68.50
2300;DHT22;1158;48.750;9.078;2023-05-28T09:24:28;28.10;68.70
2300;DHT22;1158;48.750;9.078;2023-05-28T09:26:56;26.90;68.20
2300;DHT22;1158;48.750;9.078;2023-05-28T09:29:24;27.80;68.40
2300;DHT22;1158;48.750;9.078;2023-05-28T09:31:54;28.30;67.70
2300;DHT22;1158;48.750;9.078;2023-05-28T09:34:25;27.80;70.00
2300;DHT22;1158;48.750;9.078;2023-05-28T09:36:52;27.40;69.60
2300;DHT22;1158;48.750;9.078;2023-05-28T09:39:24;27.90;66.40
2300;DHT22;1158;48.750;9.078;2023-05-28T09:41:59;28.70;67.20
2300;DHT22;1158;48.750;9.078;2023-05-28T09:44:29;28.70;65.90
2300;DHT22;1158;48.750;9.078;2023-05-28T09:46:56;28.60;66.70
2300;DHT22;1158;48.750;9.078;2023-05-28T09:49:23;28.70;66.90
2300;DHT22;1158;48.750;9.078;2023-05-28T09:51:52;28.30;64.70
2300;DHT22;1158;48.750;9.078;2023-05-28T09:54:20;27.90;67.80
2300;DHT22;1158;48.750;9.078;2023-05-28T09:56:47;28.40;66.50
2300;DHT22;1158;48.750;9.078;2023-05-28T09:59:21;27.90;66.90
2300;DHT22;1158;48.750;9.078;2023-05-28T10:01:54;26.40;68.40
2300;DHT22;1158;48.750;9.078;2023-05-28T10:04:32;27.60;66.50
2300;DHT22;1158;48.750;9.078;2023-05-28T10:07:00;28.10;65.60
2300;DHT22;1158;48.750;9.078;2023-05-28T10:09:29;28.30;66.30
2300;DHT22;1158;48.750;9.078;2023-05-28T10:12:02;28.00;68.00
2300;DHT22;1158;48.750;9.078;2023-05-28T10:14:39;28.20;65.50
2300;DHT22;1158;48.750;9.078;2023-05-28T10:17:07;28.00;66.80
2300;DHT22;1158;48.750;9.078;2023-05-28T10:19:34;26.50;66.70
2300;DHT22;1158;48.750;9.078;2023-05-28T10:22:02;27.40;66.90
2300;DHT22;1158;48.750;9.078;2023-05-28T10:24:30;27.50;67.90
2300;DHT22;1158;48.750;9.078;2023-05-28T10:26:57;27.70;67.80
2300;DHT22;1158;48.750;9.078;2023-05-28T10:29:24;28.50;65.90
2300;DHT22;1158;48.750;9.078;2023-05-28T10:31:59;29.20;64.00
2300;DHT22;1158;48.750;9.078;2023-05-28T10:34:30;27.80;66.40
2300;DHT22;1158;48.750;9.078;2023-05-28T10:37:00;28.20;65.30
2300;DHT22;1158;48.750;9.078;2023-05-28T10:39:36;28.10;64.10
2300;DHT22;1158;48.750;9.078;2023-05-28T10:42:03;27.10;68.60
2300;DHT22;1158;48.750;9.078;2023-05-28T10:44:49;27.80;68.40
2300;DHT22;1158;48.750;9.078;2023-05-28T10:47:18;28.30;66.20
2300;DHT22;1158;48.750;9.078;2023-05-28T10:49:58;27.30;66.60
2300;DHT22;1158;48.750;9.078;2023-05-28T10:52:26;26.60;68.20
2300;DHT22;1158;48.750;9.078;2023-05-28T10:54:53;27.90;68.90
2300;DHT22;1158;48.750;9.078;2023-05-28T10:57:21;28.80;65.30
2300;DHT22;1158;48.750;9.078;2023-05-28T10:59:49;28.60;64.70
2300;DHT22;1158;48.750;9.078;2023-05-28T11:02:21;29.00;62.90
2300;DHT22;1158;48.750;9.078;2023-05-28T11:04:50;29.40;62.90
2300;DHT22;1158;48.750;9.078;2023-05-28T11:07:18;29.90;62.90
2300;DHT22;1158;48.750;9.078;2023-05-28T11:09:47;29.80;59.70
2300;DHT22;1158;48.750;9.078;2023-05-28T11:12:15;29.30;60.90
2300;DHT22;1158;48.750;9.078;2023-05-28T11:14:41;29.00;62.90
2300;DHT22;1158;48.750;9.078;2023-05-28T11:17:10;28.70;61.80
2300;DHT22;1158;48.750;9.078;2023-05-28T11:19:42;29.30;62.10
2300;DHT22;1158;48.750;9.078;2023-05-28T11:22:10;29.70;60.60
2300;DHT22;1158;48.750;9.078;2023-05-28T11:25:04;29.20;61.50
2300;DHT22;1158;48.750;9.078;2023-05-28T11:27:33;29.50;59.80
2300;DHT22;1158;48.750;9.078;2023-05-28T11:30:02;29.10;60.10
2300;DHT22;1158;48.750;9.078;2023-05-28T11:32:32;29.60;62.50
2300;DHT22;1158;48.750;9.078;2023-05-28T11:35:00;28.90;63.60
2300;DHT22;1158;48.750;9.078;2023-05-28T11:37:30;29.60;63.90
2300;DHT22;1158;48.750;9.078;2023-05-28T11:39:58;30.30;63.00
2300;DHT22;1158;48.750;9.078;2023-05-28T11:42:28;30.30;64.20
2300;DHT22;1158;48.750;9.078;2023-05-28T11:44:55;30.40;63.90
2300;DHT22;1158;48.750;9.078;2023-05-28T11:47:23;30.90;62.40
2300;DHT22;1158;48.750;9.078;2023-05-28T11:49:52;30.20;63.30
2300;DHT22;1158;48.750;9.078;2023-05-28T11:52:22;28.40;65.10
2300;DHT22;1158;48.750;9.078;2023-05-28T11:54:53;29.80;64.50
2300;DHT22;1158;48.750;9.078;2023-05-28T11:57:21;29.20;63.50
2300;DHT22;1158;48.750;9.078;2023-05-28T11:59:57;30.30;63.20
2300;DHT22;1158;48.750;9.078;2023-05-28T12:02:25;30.70;62.70
2300;DHT22;1158;48.750;9.078;2023-05-28T12:04:59;31.20;59.70
2300;DHT22;1158;48.750;9.078;2023-05-28T12:07:32;30.70;60.10
2300;DHT22;1158;48.750;9.078;2023-05-28T12:10:03;31.30;61.60
2300;DHT22;1158;48.750;9.078;2023-05-28T12:12:32;31.80;59.20
2300;DHT22;1158;48.750;9.078;2023-05-28T12:15:00;31.70;60.50
2300;DHT22;1158;48.750;9.078;2023-05-28T12:17:27;31.50;59.10
2300;DHT22;1158;48.750;9.078;2023-05-28T12:20:02;30.70;59.40
2300;DHT22;1158;48.750;9.078;2023-05-28T12:22:30;29.30;64.80
2300;DHT22;1158;48.750;9.078;2023-05-28T12:24:57;30.50;61.60
2300;DHT22;1158;48.750;9.078;2023-05-28T12:27:24;31.50;59.80
2300;DHT22;1158;48.750;9.078;2023-05-28T12:29:51;31.80;59.60
2300;DHT22;1158;48.750;9.078;2023-05-28T12:32:17;31.70;58.70
2300;DHT22;1158;48.750;9.078;2023-05-28T12:34:44;31.40;61.20
2300;DHT22;1158;48.750;9.078;2023-05-28T12:37:11;31.50;58.80
2300;DHT22;1158;48.750;9.078;2023-05-28T12:39:39;31.40;59.50
2300;DHT22;1158;48.750;9.078;2023-05-28T12:42:06;31.10;58.10
2300;DHT22;1158;48.750;9.078;2023-05-28T12:44:33;31.20;57.80
2300;DHT22;1158;48.750;9.078;2023-05-28T12:46:59;31.20;60.70
2300;DHT22;1158;48.750;9.078;2023-05-28T12:49:26;31.10;57.30
2300;DHT22;1158;48.750;9.078;2023-05-28T12:51:53;31.00;57.70
2300;DHT22;1158;48.750;9.078;2023-05-28T12:54:20;31.10;57.70
2300;DHT22;1158;48.750;9.078;2023-05-28T12:56:48;30.70;58.00
2300;DHT22;1158;48.750;9.078;2023-05-28T12:59:22;31.70;56.70
2300;DHT22;1158;48.750;9.078;2023-05-28T13:01:48;31.50;57.10
2300;DHT22;1158;48.750;9.078;2023-05-28T13:04:15;31.20;57.40
2300;DHT22;1158;48.750;9.078;2023-05-28T13:06:42;30.80;57.40
2300;DHT22;1158;48.750;9.078;2023-05-28T13:09:09;31.50;56.00
2300;DHT22;1158;48.750;9.078;2023-05-28T13:11:37;31.40;57.00
2300;DHT22;1158;48.750;9.078;2023-05-28T13:14:05;31.00;55.30
2300;DHT22;1158;48.750;9.078;2023-05-28T13:16:32;31.40;56.60
2300;DHT22;1158;48.750;9.078;2023-05-28T13:18:59;31.90;56.20
2300;DHT22;1158;48.750;9.078;2023-05-28T13:21:27;31.70;56.20
2300;DHT22;1158;48.750;9.078;2023-05-28T13:23:53;32.00;56.10
2300;DHT22;1158;48.750;9.078;2023-05-28T13:26:21;32.30;55.60
2300;DHT22;1158;48.750;9.078;2023-05-28T13:28:48;32.20;56.70
2300;DHT22;1158;48.750;9.078;2023-05-28T13:31:16;32.50;56.80
2300;DHT22;1158;48.750;9.078;2023-05-28T13:33:43;32.20;57.30
2300;DHT22;1158;48.750;9.078;2023-05-28T13:36:10;32.30;55.00
2300;DHT22;1158;48.750;9.078;2023-05-28T13:38:37;32.90;53.70
2300;DHT22;1158;48.750;9.078;2023-05-28T13:41:04;33.30;54.20
2300;DHT22;1158;48.750;9.078;2023-05-28T13:43:31;33.60;54.60
2300;DHT22;1158;48.750;9.078;2023-05-28T13:45:58;33.50;53.40
2300;DHT22;1158;48.750;9.078;2023-05-28T13:48:26;33.30;54.50
2300;DHT22;1158;48.750;9.078;2023-05-28T13:50:54;33.20;52.80
2300;DHT22;1158;48.750;9.078;2023-05-28T13:53:20;32.50;54.10
2300;DHT22;1158;48.750;9.078;2023-05-28T13:55:47;30.90;54.70
2300;DHT22;1158;48.750;9.078;2023-05-28T13:58:14;31.80;55.20
2300;DHT22;1158;48.750;9.078;2023-05-28T14:00:41;32.10;54.60
2300;DHT22;1158;48.750;9.078;2023-05-28T14:03:08;32.50;55.40
2300;DHT22;1158;48.750;9.078;2023-05-28T14:05:40;32.20;55.60
2300;DHT22;1158;48.750;9.078;2023-05-28T14:08:07;33.70;54.60
2300;DHT22;1158;48.750;9.078;2023-05-28T14:10:34;34.80;52.50
2300;DHT22;1158;48.750;9.078;2023-05-28T14:13:00;35.00;52.20
2300;DHT22;1158;48.750;9.078;2023-05-28T14:15:27;34.40;51.10
2300;DHT22;1158;48.750;9.078;2023-05-28T14:17:54;33.20;51.70
2300;DHT22;1158;48.750;9.078;2023-05-28T14:20:21;32.60;52.00
2300;DHT22;1158;48.750;9.078;2023-05-28T14:22:49;32.90;52.50
2300;DHT22;1158;48.750;9.078;2023-05-28T14:25:16;32.30;53.00
2300;DHT22;1158;48.750;9.078;2023-05-28T14:27:42;32.50;53.20
2300;DHT22;1158;48.750;9.078;2023-05-28T14:30:10;32.90;52.10
2300;DHT22;1158;48.750;9.078;2023-05-28T14:32:37;33.00;51.50
2300;DHT22;1158;48.750;9.078;2023-05-28T14:35:04;31.90;54.10
2300;DHT22;1158;48.750;9.078;2023-05-28T14:37:31;32.30;54.00
2300;DHT22;1158;48.750;9.078;2023-05-28T14:39:59;32.40;52.00
2300;DHT22;1158;48.750;9.078;2023-05-28T14:42:26;31.70;51.50
2300;DHT22;1158;48.750;9.078;2023-05-28T14:44:52;31.80;53.00
2300;DHT22;1158;48.750;9.078;2023-05-28T14:47:19;32.50;51.90
2300;DHT22;1158;48.750;9.078;2023-05-28T14:49:46;32.80;51.90
2300;DHT22;1158;48.750;9.078;2023-05-28T14:52:23;33.20;51.30
2300;DHT22;1158;48.750;9.078;2023-05-28T14:54:50;32.80;51.60
2300;DHT22;1158;48.750;9.078;2023-05-28T14:57:18;32.60;52.30
2300;DHT22;1158;48.750;9.078;2023-05-28T14:59:45;33.10;52.10
2300;DHT22;1158;48.750;9.078;2023-05-28T15:02:12;33.60;50.60
2300;DHT22;1158;48.750;9.078;2023-05-28T15:04:40;33.10;51.00
2300;DHT22;1158;48.750;9.078;2023-05-28T15:07:07;33.40;51.30
2300;DHT22;1158;48.750;9.078;2023-05-28T15:09:34;33.50;49.40
2300;DHT22;1158;48.750;9.078;2023-05-28T15:12:01;33.70;50.00
2300;DHT22;1158;48.750;9.078;2023-05-28T15:14:29;33.20;50.20
2300;DHT22;1158;48.750;9.078;2023-05-28T15:16:56;32.80;52.00
2300;DHT22;1158;48.750;9.078;2023-05-28T15:19:23;32.90;52.80
2300;DHT22;1158;48.750;9.078;2023-05-28T15:21:50;33.10;51.50
2300;DHT22;1158;48.750;9.078;2023-05-28T15:24:17;33.10;50.70
2300;DHT22;1158;48.750;9.078;2023-05-28T15:26:44;32.50;50.80
2300;DHT22;1158;48.750;9.078;2023-05-28T15:29:12;31.20;52.10
2300;DHT22;1158;48.750;9.078;2023-05-28T15:31:41;31.00;51.60
2300;DHT22;1158;48.750;9.078;2023-05-28T15:34:09;31.50;52.30
2300;DHT22;1158;48.750;9.078;2023-05-28T15:36:36;32.20;52.20
2300;DHT22;1158;48.750;9.078;2023-05-28T15:39:03;32.00;53.70
2300;DHT22;1158;48.750;9.078;2023-05-28T15:41:32;32.20;52.90
2300;DHT22;1158;48.750;9.078;2023-05-28T15:43:59;31.80;52.80
2300;DHT22;1158;48.750;9.078;2023-05-28T15:46:27;31.40;54.00
2300;DHT22;1158;48.750;9.078;2023-05-28T15:48:56;31.50;53.60
2300;DHT22;1158;48.750;9.078;2023-05-28T15:51:23;31.30;54.60
2300;DHT22;1158;48.750;9.078;2023-05-28T15:53:50;31.60;55.00
2300;DHT22;1158;48.750;9.078;2023-05-28T15:56:17;31.30;53.80
2300;DHT22;1158;48.750;9.078;2023-05-28T15:58:44;30.10;55.60
2300;DHT22;1158;48.750;9.078;2023-05-28T16:01:11;30.40;56.20
2300;DHT22;1158;48.750;9.078;2023-05-28T16:03:39;30.10;55.40
2300;DHT22;1158;48.750;9.078;2023-05-28T16:06:07;30.30;54.40
2300;DHT22;1158;48.750;9.078;2023-05-28T16:08:34;30.10;55.40
2300;DHT22;1158;48.750;9.078;2023-05-28T16:11:02;29.60;55.30
2300;DHT22;1158;48.750;9.078;2023-05-28T16:13:29;29.50;56.20
2300;DHT22;1158;48.750;9.078;2023-05-28T16:15:57;28.80;54.70